Time;durP1;ratioP1;P1;durP2;ratioP2;P2;SDS_P1;SDS_P2;PMS_P1;PMS_P2;Temp;Humidity;BMP_temperature;BMP_pressure;BME280_temperature;BME280_humidity;BME280_pressure;Samples;Min_cycle;Max_cycle;Signal;HPM_P1;HPM_P2
2021/12/28 11:07:36;;;;;;;6.78;6.10;;;16.70;73.30;;;;;;5128577;27;20281;-75
2021/12/28 11:10:03;;;;;;;6.38;5.78;;;16.70;73.60;;;;;;5130259;27;20241;-74
2021/12/28 11:12:44;;;;;;;7.15;6.45;;;16.70;74.40;;;;;;5131401;27;20176;-75
2021/12/28 11:15:10;;;;;;;11.02;6.63;;;16.70;73.90;;;;;;5103864;27;20312;-75
2021/12/28 11:17:35;;;;;;;10.13;7.38;;;16.70;73.30;;;;;;5100347;28;20268;-77
2021/12/28 11:20:01;;;;;;;7.47;6.70;;;16.70;73.40;;;;;;5100325;28;21008;-76
2021/12/28 11:22:27;;;;;;;7.40;6.70;;;16.70;73.70;;;;;;5101750;28;20189;-76
2021/12/28 11:24:52;;;;;;;7.32;6.60;;;16.70;74.00;;;;;;5101843;28;20585;-75
2021/12/28 11:27:24;;;;;;;9.05;6.35;;;16.60;73.20;;;;;;5101639;28;20216;-75
2021/12/28 11:29:50;;;;;;;8.48;6.35;;;16.40;73.70;;;;;;5081003;28;20178;-75
2021/12/28 11:32:17;;;;;;;9.95;6.82;;;16.20;74.30;;;;;;5100301;28;20188;-73
2021/12/28 11:34:45;;;;;;;5.95;5.22;;;16.20;74.50;;;;;;5095225;28;20677;-73
2021/12/28 11:37:17;;;;;;;7.13;4.50;;;16.10;74.60;;;;;;5083554;28;20789;-73
2021/12/28 11:39:46;;;;;;;6.28;4.75;;;16.10;74.20;;;;;;5083466;28;20716;-73
2021/12/28 11:42:14;;;;;;;6.05;5.43;;;16.20;74.60;;;;;;5098608;28;20174;-74
2021/12/28 11:44:41;;;;;;;9.25;5.80;;;16.30;74.30;;;;;;5101384;28;20276;-74
2021/12/28 11:47:09;;;;;;;7.38;5.18;;;16.30;74.10;;;;;;5102359;28;20237;-73
2021/12/28 11:49:40;;;;;;;6.90;5.43;;;16.40;74.50;;;;;;5102079;28;20205;-74
2021/12/28 11:52:08;;;;;;;5.55;5.05;;;16.40;74.50;;;;;;5106508;28;20726;-74
2021/12/28 11:54:37;;;;;;;5.45;4.95;;;16.40;73.90;;;;;;5098539;28;20189;-75
2021/12/28 11:57:12;;;;;;;6.47;4.85;;;16.50;74.10;;;;;;5101807;28;20178;-74
2021/12/28 11:59:40;;;;;;;7.07;4.88;;;16.50;73.50;;;;;;5100474;28;20239;-73
2021/12/28 12:02:13;;;;;;;7.03;5.07;;;16.40;73.70;;;;;;5083237;28;20182;-73
2021/12/28 12:04:43;;;;;;;4.72;4.40;;;16.40;74.00;;;;;;5101991;28;20249;-71
2021/12/28 12:07:15;;;;;;;5.45;4.95;;;16.50;74.10;;;;;;5100469;28;20231;-72
2021/12/28 12:09:53;;;;;;;5.05;4.60;;;16.50;74.00;;;;;;5099359;28;20184;-72
2021/12/28 12:12:44;;;;;;;6.07;4.88;;;16.50;73.80;;;;;;5101031;28;20189;-72
2021/12/28 12:15:12;;;;;;;6.93;4.93;;;16.60;73.40;;;;;;5101926;28;20189;-72
2021/12/28 12:17:39;;;;;;;6.65;5.75;;;16.70;73.40;;;;;;5093667;28;20174;-72
2021/12/28 12:20:24;;;;;;;5.15;4.43;;;16.80;73.10;;;;;;5086601;28;20222;-74
2021/12/28 12:23:08;;;;;;;5.88;4.40;;;16.80;72.60;;;;;;5085256;28;20182;-74
2021/12/28 12:25:50;;;;;;;5.07;4.63;;;16.90;73.20;;;;;;5085194;28;20288;-74
2021/12/28 12:28:30;;;;;;;6.90;4.97;;;17.10;72.40;;;;;;5085357;28;20197;-74
2021/12/28 12:30:57;;;;;;;5.05;4.65;;;17.00;71.80;;;;;;5086305;28;20274;-76
2021/12/28 12:33:32;;;;;;;8.23;4.90;;;16.90;72.40;;;;;;5068951;28;20691;-75
2021/12/28 12:35:59;;;;;;;5.18;4.75;;;16.80;72.50;;;;;;5085749;28;20178;-74
2021/12/28 12:38:25;;;;;;;7.88;5.40;;;16.70;72.70;;;;;;5087525;28;20235;-76
2021/12/28 12:41:19;;;;;;;5.50;5.05;;;16.50;72.70;;;;;;5068288;28;20667;-75
2021/12/28 12:43:48;;;;;;;5.63;4.95;;;16.40;73.10;;;;;;5087041;28;20335;-75
2021/12/28 12:46:25;;;;;;;6.25;4.78;;;16.30;73.60;;;;;;5067923;28;20687;-75
2021/12/28 12:48:54;;;;;;;6.95;5.07;;;16.30;73.30;;;;;;5083629;28;20186;-75
2021/12/28 12:51:22;;;;;;;5.15;4.68;;;16.20;73.60;;;;;;5080381;28;20261;-76
2021/12/28 12:54:19;;;;;;;7.82;4.88;;;16.10;73.70;;;;;;5083063;28;20205;-75
2021/12/28 12:56:50;;;;;;;7.75;5.18;;;16.00;73.40;;;;;;5063922;28;20183;-75
2021/12/28 12:59:19;;;;;;;5.38;4.88;;;15.90;74.10;;;;;;5084335;28;20190;-72
2021/12/28 13:01:47;;;;;;;5.47;4.97;;;15.80;73.90;;;;;;5084860;28;20546;-73
2021/12/28 13:04:26;;;;;;;5.70;5.00;;;15.60;74.80;;;;;;5081784;28;20686;-73
2021/12/28 13:07:06;;;;;;;5.63;5.13;;;15.50;74.90;;;;;;5064377;28;20603;-72
2021/12/28 13:09:41;;;;;;;6.68;5.38;;;15.40;75.40;;;;;;5083381;28;20691;-75
2021/12/28 13:12:09;;;;;;;8.00;5.70;;;15.30;75.50;;;;;;5081565;28;20213;-74
2021/12/28 13:14:35;;;;;;;5.22;4.57;;;15.20;75.50;;;;;;5065381;28;20182;-75
2021/12/28 13:17:02;;;;;;;5.22;4.78;;;15.10;75.80;;;;;;5085500;28;20183;-75
2021/12/28 13:19:29;;;;;;;5.10;4.78;;;15.00;76.40;;;;;;5085354;28;20182;-75
2021/12/28 13:21:59;;;;;;;7.47;5.55;;;14.90;76.40;;;;;;5082178;28;20201;-75
2021/12/28 13:24:27;;;;;;;9.20;6.10;;;14.90;76.60;;;;;;5083238;28;20193;-75
2021/12/28 13:26:57;;;;;;;6.40;5.32;;;14.80;76.70;;;;;;5083573;28;20214;-73
2021/12/28 13:29:34;;;;;;;7.38;5.97;;;14.70;76.80;;;;;;5082545;28;20637;-75
2021/12/28 13:32:21;;;;;;;5.93;5.32;;;14.70;76.90;;;;;;5082121;28;20178;-75
2021/12/28 13:35:02;;;;;;;4.63;4.20;;;14.60;77.20;;;;;;5080857;28;20245;-75
2021/12/28 13:37:42;;;;;;;6.13;4.10;;;14.50;76.90;;;;;;5083019;28;20670;-75
2021/12/28 13:40:13;;;;;;;5.05;3.78;;;14.40;77.30;;;;;;5082351;28;20196;-75
2021/12/28 13:42:42;;;;;;;3.88;3.47;;;14.30;77.60;;;;;;5082532;28;20252;-75
2021/12/28 13:45:11;;;;;;;3.63;3.33;;;14.30;77.90;;;;;;5082611;28;20186;-72
2021/12/28 13:47:41;;;;;;;3.88;3.45;;;14.20;78.10;;;;;;5081614;28;20209;-75
2021/12/28 13:50:16;;;;;;;3.58;3.28;;;14.10;77.90;;;;;;5085509;28;20201;-75
2021/12/28 13:52:46;;;;;;;8.55;3.20;;;14.10;78.30;;;;;;5083350;28;20618;-75
2021/12/28 13:55:14;;;;;;;3.33;3.00;;;14.00;78.20;;;;;;5083834;28;20236;-75
2021/12/28 13:57:40;;;;;;;3.38;3.08;;;14.00;78.20;;;;;;5084373;28;20205;-75
2021/12/28 14:00:10;;;;;;;4.47;3.42;;;14.00;78.50;;;;;;5083477;28;20197;-75
2021/12/28 14:02:36;;;;;;;3.63;3.33;;;14.00;78.60;;;;;;5085470;28;20185;-75
2021/12/28 14:05:02;;;;;;;4.20;3.05;;;14.10;78.30;;;;;;5083979;28;20205;-75
2021/12/28 14:07:30;;;;;;;4.05;3.22;;;14.20;78.30;;;;;;5079916;28;20308;-75
2021/12/28 14:09:56;;;;;;;5.65;3.97;;;14.00;78.40;;;;;;5066050;28;20189;-73
2021/12/28 14:12:28;;;;;;;5.88;4.32;;;13.80;79.00;;;;;;5066732;28;20187;-75
2021/12/28 14:14:53;;;;;;;3.95;3.60;;;13.80;79.10;;;;;;5083690;28;20174;-74
2021/12/28 14:17:25;;;;;;;5.22;3.58;;;13.80;79.20;;;;;;5065429;28;20190;-76
2021/12/28 14:19:58;;;;;;;4.47;3.72;;;13.80;79.30;;;;;;5086165;28;20182;-76
2021/12/28 14:22:24;;;;;;;4.47;3.28;;;13.80;79.40;;;;;;5085045;28;20282;-74
2021/12/28 14:24:53;;;;;;;4.63;3.55;;;13.60;79.10;;;;;;5066901;28;20335;-74
2021/12/28 14:27:33;;;;;;;3.95;3.33;;;13.40;79.40;;;;;;5080844;28;20278;-72
2021/12/28 14:30:13;;;;;;;3.65;3.35;;;13.20;79.60;;;;;;5084068;28;20250;-72
2021/12/28 14:32:44;;;;;;;3.40;3.15;;;13.00;80.20;;;;;;5083917;28;20274;-72
2021/12/28 14:35:13;;;;;;;3.10;2.80;;;12.90;80.40;;;;;;5081249;28;20663;-72
2021/12/28 14:37:41;;;;;;;4.03;2.55;;;12.70;80.40;;;;;;5083144;28;20955;-71
2021/12/28 14:40:23;;;;;;;3.15;2.95;;;12.50;80.70;;;;;;5084237;28;20261;-73
2021/12/28 14:42:51;;;;;;;3.33;2.85;;;12.40;81.10;;;;;;5083951;28;20219;-73
2021/12/28 14:45:22;;;;;;;4.05;2.97;;;12.20;81.20;;;;;;5082306;28;20191;-72
2021/12/28 14:47:48;;;;;;;3.15;2.80;;;12.10;81.40;;;;;;5081305;28;20320;-71
2021/12/28 14:50:29;;;;;;;2.92;2.78;;;12.00;82.00;;;;;;5082485;28;20302;-72
2021/12/28 14:53:01;;;;;;;4.00;3.05;;;11.90;82.40;;;;;;5081436;28;20190;-73
2021/12/28 14:55:32;;;;;;;4.57;3.15;;;11.80;82.60;;;;;;5078550;28;20187;-74
2021/12/28 14:58:07;;;;;;;3.20;3.05;;;11.70;82.90;;;;;;5079526;28;20269;-74
2021/12/28 15:00:37;;;;;;;5.45;3.25;;;11.70;83.10;;;;;;5079680;28;20186;-74
2021/12/28 15:03:13;;;;;;;3.25;2.95;;;11.60;83.40;;;;;;5081534;28;20178;-73
2021/12/28 15:05:57;;;;;;;3.88;3.20;;;11.50;83.90;;;;;;5079974;28;20228;-74
2021/12/28 15:08:26;;;;;;;6.22;3.47;;;11.40;84.30;;;;;;5076774;28;20198;-74
2021/12/28 15:10:55;;;;;;;3.80;3.45;;;11.30;84.70;;;;;;5080062;28;20239;-73
2021/12/28 15:13:27;;;;;;;3.40;3.20;;;11.20;84.70;;;;;;5082928;28;20278;-74
2021/12/28 15:15:53;;;;;;;3.55;3.38;;;11.20;84.50;;;;;;5081801;28;20221;-74
2021/12/28 15:18:20;;;;;;;4.47;3.03;;;11.20;84.70;;;;;;5083190;28;20178;-74
2021/12/28 15:20:47;;;;;;;3.13;2.83;;;11.10;85.00;;;;;;5082099;28;20167;-74
2021/12/28 15:23:13;;;;;;;3.70;3.40;;;11.10;84.90;;;;;;5079914;28;20862;-74
2021/12/28 15:25:39;;;;;;;2.67;2.47;;;11.00;84.90;;;;;;5062057;28;20212;-74
2021/12/28 15:28:06;;;;;;;3.80;3.17;;;11.00;84.90;;;;;;5082318;28;20182;-74
2021/12/28 15:30:35;;;;;;;6.10;3.60;;;10.90;85.10;;;;;;5082568;28;20629;-74
2021/12/28 15:33:01;;;;;;;4.05;3.58;;;10.90;85.10;;;;;;5080084;28;20298;-74
2021/12/28 15:35:33;;;;;;;5.10;3.30;;;10.90;85.50;;;;;;5081568;28;20206;-74
2021/12/28 15:38:01;;;;;;;4.78;3.63;;;10.80;85.20;;;;;;5080801;28;20186;-74
2021/12/28 15:40:38;;;;;;;3.08;2.90;;;10.80;85.30;;;;;;5075134;28;20251;-73
2021/12/28 15:43:07;;;;;;;9.73;3.40;;;10.80;85.40;;;;;;5079779;28;20610;-73
2021/12/28 15:45:34;;;;;;;5.55;3.70;;;10.70;85.20;;;;;;5061951;28;20186;-74
2021/12/28 15:47:59;;;;;;;4.05;3.75;;;10.70;85.40;;;;;;5079469;28;20242;-74
2021/12/28 15:50:25;;;;;;;6.80;4.88;;;10.60;85.60;;;;;;5077616;28;20182;-73
2021/12/28 15:52:51;;;;;;;4.25;3.95;;;10.60;85.70;;;;;;5079383;28;20178;-74
2021/12/28 15:55:17;;;;;;;5.07;4.15;;;10.50;85.40;;;;;;5084684;28;20187;-74
2021/12/28 15:57:43;;;;;;;8.00;6.20;;;10.50;85.40;;;;;;5083586;28;20182;-74
2021/12/28 16:00:12;;;;;;;5.57;4.38;;;10.40;85.30;;;;;;5083770;28;20183;-75
2021/12/28 16:02:38;;;;;;;5.35;4.80;;;10.40;85.70;;;;;;5067528;28;20210;-75
2021/12/28 16:05:05;;;;;;;5.25;4.38;;;10.30;85.60;;;;;;5085428;28;20660;-74
2021/12/28 16:07:31;;;;;;;4.65;4.22;;;10.30;85.50;;;;;;5083669;28;20248;-75
2021/12/28 16:10:01;;;;;;;8.68;5.40;;;10.30;85.60;;;;;;5084587;28;20221;-74
2021/12/28 16:12:26;;;;;;;5.97;5.00;;;10.20;85.50;;;;;;5081108;28;20185;-74
2021/12/28 16:14:54;;;;;;;4.57;4.20;;;10.20;85.20;;;;;;5082399;28;20182;-74
2021/12/28 16:17:20;;;;;;;4.13;3.75;;;10.20;85.20;;;;;;5080121;28;20554;-73
2021/12/28 16:19:45;;;;;;;6.80;4.70;;;10.20;85.30;;;;;;5085429;28;20246;-73
2021/12/28 16:22:12;;;;;;;5.03;4.53;;;10.20;85.30;;;;;;5078858;28;20220;-73
2021/12/28 16:24:42;;;;;;;7.07;4.95;;;10.20;85.30;;;;;;5081497;28;20174;-72
2021/12/28 16:27:08;;;;;;;6.03;5.32;;;10.20;85.30;;;;;;5078737;28;20213;-73
2021/12/28 16:29:35;;;;;;;5.25;4.75;;;10.10;85.30;;;;;;5081310;28;20186;-74
2021/12/28 16:32:03;;;;;;;11.10;5.90;;;10.10;85.30;;;;;;5084058;28;20189;-73
2021/12/28 16:34:28;;;;;;;8.20;5.90;;;10.00;85.40;;;;;;5067268;28;20189;-72
2021/12/28 16:36:54;;;;;;;6.65;5.05;;;10.00;85.60;;;;;;5064999;28;20273;-71
2021/12/28 16:39:20;;;;;;;6.60;4.78;;;10.00;85.70;;;;;;5083634;28;20186;-73
2021/12/28 16:41:46;;;;;;;7.07;4.63;;;9.90;85.60;;;;;;5083799;28;20212;-71
2021/12/28 16:44:12;;;;;;;5.60;4.38;;;9.90;85.70;;;;;;5083174;28;20185;-72
2021/12/28 16:46:38;;;;;;;8.93;5.43;;;9.90;85.70;;;;;;5079053;28;20253;-72
2021/12/28 16:49:06;;;;;;;10.70;5.75;;;9.90;85.80;;;;;;5083686;28;20185;-71
2021/12/28 16:51:32;;;;;;;6.78;6.03;;;9.80;85.80;;;;;;5084477;28;20181;-73
2021/12/28 16:53:58;;;;;;;9.27;5.53;;;9.80;85.80;;;;;;5081234;28;20814;-72
2021/12/28 16:56:25;;;;;;;7.32;6.45;;;9.80;86.20;;;;;;5082683;28;20197;-71
2021/12/28 16:58:54;;;;;;;10.27;6.50;;;9.70;86.10;;;;;;5084406;28;20776;-72
2021/12/28 17:01:25;;;;;;;10.98;6.90;;;9.70;86.40;;;;;;5081595;28;20206;-72
2021/12/28 17:03:51;;;;;;;12.30;8.43;;;9.70;86.20;;;;;;5081886;28;20572;-72
2021/12/28 17:06:17;;;;;;;13.57;8.40;;;9.60;86.60;;;;;;5083327;28;20213;-73
2021/12/28 17:08:44;;;;;;;12.13;6.95;;;9.60;86.60;;;;;;5064910;28;20182;-72
2021/12/28 17:11:10;;;;;;;10.05;6.22;;;9.60;86.50;;;;;;5083929;28;20193;-72
2021/12/28 17:13:39;;;;;;;9.13;6.38;;;9.60;86.90;;;;;;5081364;28;20186;-71
2021/12/28 17:16:05;;;;;;;7.50;6.03;;;9.60;87.20;;;;;;5062655;28;20187;-72
2021/12/28 17:18:33;;;;;;;9.70;6.18;;;9.50;87.20;;;;;;5082757;28;20182;-74
2021/12/28 17:20:59;;;;;;;7.70;5.53;;;9.50;87.50;;;;;;5065293;28;20194;-72
2021/12/28 17:23:25;;;;;;;9.40;5.95;;;9.50;87.40;;;;;;5083511;28;20236;-72
2021/12/28 17:25:50;;;;;;;7.43;5.75;;;9.50;87.70;;;;;;5082139;28;20289;-72
2021/12/28 17:28:16;;;;;;;6.88;5.63;;;9.50;87.50;;;;;;5083677;28;20243;-72
2021/12/28 17:30:42;;;;;;;10.65;6.70;;;9.50;87.70;;;;;;5082684;28;20186;-72
2021/12/28 17:33:08;;;;;;;10.73;7.55;;;9.50;88.00;;;;;;5081662;28;20258;-72
2021/12/28 17:35:36;;;;;;;11.40;7.20;;;9.40;88.10;;;;;;5082928;28;20185;-72
2021/12/28 17:38:04;;;;;;;11.20;7.05;;;9.40;88.50;;;;;;5064263;28;20176;-72
2021/12/28 17:40:36;;;;;;;19.65;9.95;;;9.40;88.40;;;;;;5083081;28;20561;-73
2021/12/28 17:43:03;;;;;;;22.33;10.15;;;9.40;88.30;;;;;;5081188;28;20183;-72
2021/12/28 17:45:29;;;;;;;16.05;10.32;;;9.40;88.30;;;;;;5083665;28;20212;-72
2021/12/28 17:47:57;;;;;;;21.85;12.20;;;9.40;88.60;;;;;;5084674;28;20696;-73
2021/12/28 17:50:25;;;;;;;24.08;13.18;;;9.40;88.90;;;;;;5063400;28;20182;-72
2021/12/28 17:52:51;;;;;;;33.15;15.80;;;9.40;88.90;;;;;;5082830;28;20213;-71
2021/12/28 17:55:17;;;;;;;29.60;16.67;;;9.40;89.20;;;;;;5082521;28;20186;-72
2021/12/28 17:57:43;;;;;;;32.53;18.08;;;9.40;89.30;;;;;;5082813;28;20193;-71
2021/12/28 18:00:11;;;;;;;37.03;19.17;;;9.40;89.60;;;;;;5081378;28;20175;-71
2021/12/28 18:02:37;;;;;;;34.45;18.90;;;9.30;89.40;;;;;;5080356;28;20182;-72
2021/12/28 18:05:03;;;;;;;37.75;19.30;;;9.30;89.60;;;;;;5082074;28;20846;-75
2021/12/28 18:07:29;;;;;;;35.67;18.45;;;9.30;89.70;;;;;;5083446;28;20737;-72
2021/12/28 18:09:54;;;;;;;40.42;19.95;;;9.30;89.70;;;;;;5082980;28;20199;-74
2021/12/28 18:12:20;;;;;;;40.30;20.92;;;9.30;89.80;;;;;;5082452;28;20184;-72
2021/12/28 18:14:46;;;;;;;42.33;20.38;;;9.30;90.00;;;;;;5083247;28;20182;-73
2021/12/28 18:17:12;;;;;;;35.13;18.80;;;9.30;90.00;;;;;;5083195;28;20182;-73
2021/12/28 18:19:38;;;;;;;24.60;16.52;;;9.20;90.20;;;;;;5082563;28;20190;-72
2021/12/28 18:22:04;;;;;;;30.08;16.92;;;9.20;89.90;;;;;;5076365;28;20254;-73
2021/12/28 18:24:30;;;;;;;28.08;15.55;;;9.20;90.00;;;;;;5064667;28;20697;-72
2021/12/28 18:26:55;;;;;;;34.72;16.02;;;9.10;89.90;;;;;;5081682;28;20206;-74
2021/12/28 18:29:26;;;;;;;39.28;18.02;;;9.10;90.10;;;;;;5082600;28;20189;-72
2021/12/28 18:31:52;;;;;;;35.85;19.20;;;9.10;90.30;;;;;;5082286;28;20592;-74
2021/12/28 18:34:18;;;;;;;35.05;18.58;;;9.10;90.10;;;;;;5081751;28;20190;-72
2021/12/28 18:36:43;;;;;;;33.85;19.13;;;9.10;90.20;;;;;;5082227;28;20273;-74
2021/12/28 18:39:09;;;;;;;35.08;16.55;;;9.00;90.30;;;;;;5082525;28;20179;-72
2021/12/28 18:41:35;;;;;;;28.17;15.68;;;9.00;90.20;;;;;;5080062;28;20185;-74
2021/12/28 18:44:02;;;;;;;30.10;16.67;;;9.00;90.30;;;;;;5081103;28;20178;-72
2021/12/28 18:46:28;;;;;;;32.15;18.23;;;8.90;90.30;;;;;;5081330;28;21483;-76
2021/12/28 18:48:54;;;;;;;31.83;16.73;;;8.90;90.50;;;;;;5082611;28;20782;-76
2021/12/28 18:51:20;;;;;;;25.58;14.70;;;8.90;90.60;;;;;;5082406;28;20189;-75
2021/12/28 18:53:46;;;;;;;35.13;16.67;;;8.90;90.40;;;;;;5080077;28;20213;-73
2021/12/28 18:56:12;;;;;;;24.98;15.05;;;8.90;90.40;;;;;;5082559;28;20189;-73
2021/12/28 18:58:43;;;;;;;34.60;16.10;;;8.80;90.40;;;;;;5082126;28;20186;-73
2021/12/28 19:01:09;;;;;;;24.02;14.18;;;8.80;90.40;;;;;;5063826;28;20217;-73
2021/12/28 19:03:36;;;;;;;30.38;15.40;;;8.70;90.40;;;;;;5081776;28;20574;-74
2021/12/28 19:06:03;;;;;;;24.92;13.95;;;8.70;90.50;;;;;;5081241;28;20210;-74
2021/12/28 19:08:29;;;;;;;24.52;15.68;;;8.70;90.40;;;;;;5081154;28;20174;-74
2021/12/28 19:10:56;;;;;;;34.30;15.80;;;8.70;90.50;;;;;;5081893;28;20594;-74
2021/12/28 19:13:25;;;;;;;25.60;14.15;;;8.70;90.60;;;;;;5081225;28;20182;-72
2021/12/28 19:15:51;;;;;;;26.08;13.13;;;8.60;90.40;;;;;;5062224;28;20208;-72
2021/12/28 19:18:17;;;;;;;20.42;11.55;;;8.60;90.20;;;;;;5081155;28;20178;-74
2021/12/28 19:20:48;;;;;;;23.10;13.63;;;8.60;90.20;;;;;;5081924;28;20231;-75
2021/12/28 19:23:15;;;;;;;28.55;15.57;;;8.60;90.50;;;;;;5078646;28;20178;-74
2021/12/28 19:25:41;;;;;;;26.98;13.95;;;8.50;90.90;;;;;;5062296;28;20183;-74
2021/12/28 19:28:09;;;;;;;30.95;14.15;;;8.60;90.90;;;;;;5080722;28;20595;-74
2021/12/28 19:30:38;;;;;;;29.33;15.13;;;8.50;90.80;;;;;;5084439;28;20189;-73
2021/12/28 19:33:04;;;;;;;23.17;12.88;;;8.50;90.90;;;;;;5083337;28;20179;-74
2021/12/28 19:35:29;;;;;;;24.02;14.45;;;8.60;90.90;;;;;;5083955;28;20190;-74
2021/12/28 19:37:56;;;;;;;26.13;14.48;;;8.50;91.10;;;;;;5083310;28;20774;-70
2021/12/28 19:40:25;;;;;;;24.80;14.32;;;8.60;91.20;;;;;;5065004;28;20699;-73
2021/12/28 19:42:51;;;;;;;28.25;15.30;;;8.50;90.90;;;;;;5083231;28;20175;-68
2021/12/28 19:45:17;;;;;;;27.10;13.80;;;8.50;90.90;;;;;;5083610;28;20668;-70
2021/12/28 19:47:44;;;;;;;21.17;14.05;;;8.50;90.80;;;;;;5086099;28;20297;-75
2021/12/28 19:50:11;;;;;;;22.88;14.18;;;8.50;90.90;;;;;;5081849;28;20255;-72
2021/12/28 19:52:38;;;;;;;26.35;15.15;;;8.50;90.90;;;;;;5083428;28;20179;-72
2021/12/28 19:55:07;;;;;;;32.10;15.30;;;8.40;91.00;;;;;;5081304;28;20359;-83
2021/12/28 19:57:33;;;;;;;36.53;16.30;;;8.40;91.00;;;;;;5062999;28;20217;-78
2021/12/28 20:00:00;;;;;;;32.83;16.13;;;8.40;91.20;;;;;;5064997;28;20727;-77
2021/12/28 20:02:28;;;;;;;28.98;15.43;;;8.40;91.40;;;;;;5084767;28;20582;-79
2021/12/28 20:04:55;;;;;;;33.08;16.13;;;8.40;91.40;;;;;;5065891;28;20190;-79
2021/12/28 20:07:21;;;;;;;32.65;17.75;;;8.40;91.40;;;;;;5065614;28;20249;-78
2021/12/28 20:09:47;;;;;;;38.72;19.52;;;8.40;91.30;;;;;;5085385;28;20217;-77
2021/12/28 20:12:13;;;;;;;37.33;19.50;;;8.40;91.40;;;;;;5066859;28;20593;-77
2021/12/28 20:14:40;;;;;;;34.95;18.25;;;8.30;91.80;;;;;;5086373;28;20265;-75
2021/12/28 20:17:05;;;;;;;39.53;18.83;;;8.30;91.80;;;;;;5067414;28;20190;-75
2021/12/28 20:19:31;;;;;;;37.38;18.58;;;8.30;91.80;;;;;;5086650;28;20839;-79
2021/12/28 20:21:57;;;;;;;40.42;17.67;;;8.30;91.90;;;;;;5091272;28;20179;-78
2021/12/28 20:24:24;;;;;;;29.65;15.63;;;8.30;91.80;;;;;;5098094;28;20194;-79
2021/12/28 20:26:52;;;;;;;24.75;14.38;;;8.30;92.00;;;;;;5081341;28;20213;-74
2021/12/28 20:29:19;;;;;;;29.83;14.00;;;8.30;91.80;;;;;;5086726;28;20185;-77
2021/12/28 20:31:44;;;;;;;24.20;12.85;;;8.30;91.90;;;;;;5085340;28;20955;-74
2021/12/28 20:34:11;;;;;;;27.77;13.53;;;8.30;91.80;;;;;;5083701;28;20185;-76
2021/12/28 20:36:37;;;;;;;26.55;13.50;;;8.20;91.60;;;;;;5085820;28;20197;-76
2021/12/28 20:39:06;;;;;;;20.50;12.67;;;8.20;91.60;;;;;;5087991;28;20182;-75
2021/12/28 20:41:33;;;;;;;19.63;12.65;;;8.20;91.50;;;;;;5085272;28;20858;-76
2021/12/28 20:43:59;;;;;;;27.20;13.77;;;8.20;91.50;;;;;;5089288;28;20686;-75
2021/12/28 20:46:24;;;;;;;20.13;11.70;;;8.20;91.50;;;;;;5066794;28;20213;-76
2021/12/28 20:48:51;;;;;;;24.25;14.88;;;8.20;91.70;;;;;;5081885;28;20309;-77
2021/12/28 20:51:19;;;;;;;28.23;14.30;;;8.20;91.60;;;;;;5089363;28;20187;-78
2021/12/28 20:53:45;;;;;;;30.75;13.35;;;8.20;91.60;;;;;;5085619;28;20194;-74
2021/12/28 20:56:11;;;;;;;22.13;13.60;;;8.20;91.60;;;;;;5087957;28;20187;-77
2021/12/28 20:58:39;;;;;;;28.95;11.88;;;8.10;91.60;;;;;;5084557;28;20885;-76
2021/12/28 21:01:08;;;;;;;20.20;11.63;;;8.10;91.80;;;;;;5067100;28;20182;-76
2021/12/28 21:03:34;;;;;;;24.73;13.40;;;8.00;91.80;;;;;;5085193;28;20269;-77
2021/12/28 21:05:59;;;;;;;25.83;13.47;;;8.00;91.90;;;;;;5086228;28;20218;-76
2021/12/28 21:08:27;;;;;;;21.83;12.75;;;8.00;92.10;;;;;;5083837;28;20185;-75
2021/12/28 21:10:53;;;;;;;31.13;13.63;;;7.90;92.10;;;;;;5086620;28;20182;-76
2021/12/28 21:13:20;;;;;;;24.50;13.40;;;7.90;92.10;;;;;;5085766;28;20235;-76
2021/12/28 21:15:47;;;;;;;21.03;11.93;;;7.90;92.30;;;;;;5086234;28;20186;-76
2021/12/28 21:18:14;;;;;;;26.00;14.27;;;7.90;92.20;;;;;;5086817;28;20201;-76
2021/12/28 21:20:39;;;;;;;29.90;15.23;;;7.80;92.50;;;;;;5085061;28;21131;-76
2021/12/28 21:23:07;;;;;;;32.60;16.33;;;7.80;93.00;;;;;;5085711;28;20187;-76
2021/12/28 21:25:33;;;;;;;34.53;17.37;;;7.70;93.80;;;;;;5086019;28;20175;-76
2021/12/28 21:27:59;;;;;;;34.17;16.70;;;7.60;93.60;;;;;;5085132;28;20185;-77
2021/12/28 21:30:27;;;;;;;34.75;18.17;;;7.50;94.30;;;;;;5079699;28;20218;-76
2021/12/28 21:32:55;;;;;;;32.53;18.30;;;7.40;94.80;;;;;;5074814;28;20179;-76
2021/12/28 21:35:21;;;;;;;36.67;17.87;;;7.30;95.10;;;;;;5075789;28;20184;-73
2021/12/28 21:37:48;;;;;;;36.40;19.27;;;7.30;95.10;;;;;;5062387;28;20186;-71
2021/12/28 21:40:17;;;;;;;47.77;19.87;;;7.20;95.10;;;;;;5079946;28;20845;-74
2021/12/28 21:42:44;;;;;;;39.00;20.27;;;7.10;95.50;;;;;;5082189;28;20184;-74
2021/12/28 21:45:13;;;;;;;40.60;19.40;;;6.90;96.40;;;;;;5082181;28;20857;-75
2021/12/28 21:47:39;;;;;;;43.90;21.37;;;6.90;96.40;;;;;;5081882;28;20210;-75
2021/12/28 21:50:06;;;;;;;42.30;20.77;;;6.80;96.80;;;;;;5081891;28;20201;-75
2021/12/28 21:52:31;;;;;;;47.50;21.30;;;6.80;96.70;;;;;;5060541;28;20686;-74
2021/12/28 21:54:59;;;;;;;39.13;20.47;;;6.70;96.80;;;;;;5085368;28;20210;-75
2021/12/28 21:57:26;;;;;;;35.40;19.67;;;6.70;96.80;;;;;;5083717;28;20214;-75
2021/12/28 21:59:52;;;;;;;51.53;21.37;;;6.70;96.80;;;;;;5083813;28;20204;-75
2021/12/28 22:02:17;;;;;;;40.87;20.90;;;6.60;96.90;;;;;;5082219;28;20174;-75
2021/12/28 22:04:43;;;;;;;48.23;21.20;;;6.60;97.20;;;;;;5077982;28;20182;-75
2021/12/28 22:07:09;;;;;;;31.73;18.60;;;6.50;97.40;;;;;;5083251;28;20209;-75
2021/12/28 22:09:40;;;;;;;40.43;16.77;;;6.50;97.20;;;;;;5082353;28;20701;-75
2021/12/28 22:12:14;;;;;;;33.73;15.70;;;6.40;97.30;;;;;;5066677;28;20675;-75
2021/12/28 22:14:46;;;;;;;28.50;12.77;;;6.20;97.50;;;;;;5064771;28;20571;-75
2021/12/28 22:17:21;;;;;;;29.13;12.63;;;6.20;97.40;;;;;;5083509;28;20198;-75
2021/12/28 22:19:55;;;;;;;23.37;12.13;;;;;;;;;;5083198;28;20186;-74
2021/12/28 22:22:21;;;;;;;25.80;11.80;;;6.00;97.90;;;;;;5063181;28;20186;-75
2021/12/28 22:24:49;;;;;;;32.03;12.33;;;5.90;98.20;;;;;;5082832;28;20186;-75
2021/12/28 22:27:16;;;;;;;32.63;13.13;;;5.90;98.20;;;;;;5085011;28;20787;-75
2021/12/28 22:29:43;;;;;;;21.53;11.63;;;5.80;98.50;;;;;;5063650;28;20565;-75
2021/12/28 22:32:16;;;;;;;26.53;13.10;;;5.80;98.50;;;;;;5081971;28;20186;-75
2021/12/28 22:34:42;;;;;;;30.30;12.23;;;5.70;98.50;;;;;;5083491;28;20167;-76
2021/12/28 22:37:08;;;;;;;24.17;10.30;;;5.70;98.50;;;;;;5079579;28;20186;-75
2021/12/28 22:39:34;;;;;;;20.20;11.13;;;5.60;98.50;;;;;;5081457;28;20595;-76
2021/12/28 22:42:03;;;;;;;28.70;12.93;;;5.50;98.50;;;;;;5081688;28;20615;-73
2021/12/28 22:44:28;;;;;;;25.27;11.57;;;5.50;98.50;;;;;;5082642;28;20178;-74
2021/12/28 22:46:54;;;;;;;41.60;11.60;;;5.50;98.50;;;;;;5085125;28;20216;-73
2021/12/28 22:49:20;;;;;;;23.57;11.27;;;5.50;98.50;;;;;;5081420;28;20182;-75
2021/12/28 22:51:45;;;;;;;22.80;11.60;;;5.50;98.50;;;;;;5083210;28;20183;-75
2021/12/28 22:54:11;;;;;;;19.13;10.37;;;5.50;98.50;;;;;;5062227;28;20209;-73
2021/12/28 22:56:37;;;;;;;18.90;10.37;;;5.50;98.50;;;;;;5082273;28;20649;-74
2021/12/28 22:59:03;;;;;;;22.87;11.27;;;5.50;98.50;;;;;;5083549;28;20178;-73
2021/12/28 23:01:28;;;;;;;25.37;11.43;;;5.40;98.50;;;;;;5082995;28;20181;-73
2021/12/28 23:03:54;;;;;;;19.77;10.67;;;5.40;98.50;;;;;;5083688;28;20178;-73
2021/12/28 23:06:20;;;;;;;19.63;9.83;;;5.50;98.50;;;;;;5080654;28;21040;-73
2021/12/28 23:08:46;;;;;;;17.97;10.07;;;5.50;98.50;;;;;;5082047;28;20273;-73
2021/12/28 23:11:12;;;;;;;23.30;11.27;;;5.50;98.50;;;;;;5083330;28;20212;-74
2021/12/28 23:13:39;;;;;;;20.13;10.70;;;5.50;98.50;;;;;;5083330;28;20182;-73
2021/12/28 23:16:06;;;;;;;29.13;12.03;;;5.50;98.50;;;;;;5065801;28;20182;-75
2021/12/28 23:18:32;;;;;;;24.77;10.50;;;5.50;98.50;;;;;;5084715;28;20183;-75
2021/12/28 23:20:58;;;;;;;29.90;10.70;;;5.60;98.50;;;;;;5078190;28;21020;-75
2021/12/28 23:23:30;;;;;;;29.73;12.20;;;5.60;98.50;;;;;;5082080;28;20182;-75
2021/12/28 23:25:58;;;;;;;19.50;10.40;;;5.60;98.50;;;;;;5084606;28;20224;-75
2021/12/28 23:28:25;;;;;;;27.77;11.73;;;5.70;98.50;;;;;;5083727;28;20247;-75
2021/12/28 23:30:53;;;;;;;25.83;12.27;;;5.70;98.50;;;;;;5062712;28;20210;-75
2021/12/28 23:33:20;;;;;;;23.80;11.27;;;5.60;98.50;;;;;;5066044;28;20571;-75
2021/12/28 23:35:46;;;;;;;22.07;11.27;;;5.60;98.50;;;;;;5081471;28;20260;-75
2021/12/28 23:38:12;;;;;;;27.10;11.67;;;5.60;98.50;;;;;;5080353;28;20198;-74
2021/12/28 23:40:39;;;;;;;24.40;10.10;;;5.70;98.50;;;;;;5079036;28;20242;-74
2021/12/28 23:43:06;;;;;;;25.07;9.53;;;5.70;98.50;;;;;;5083865;28;20247;-75
2021/12/28 23:45:32;;;;;;;23.50;10.80;;;5.70;98.50;;;;;;5079983;28;20222;-75
2021/12/28 23:47:58;;;;;;;31.97;11.50;;;5.70;98.50;;;;;;5083460;28;21607;-75
2021/12/28 23:50:24;;;;;;;27.73;11.27;;;5.70;98.50;;;;;;5081896;28;20178;-75
2021/12/28 23:52:51;;;;;;;15.43;8.73;;;5.80;98.50;;;;;;5081154;28;20189;-75
2021/12/28 23:55:19;;;;;;;16.57;9.43;;;5.70;98.50;;;;;;5084023;28;20221;-75